Time;durP1;ratioP1;P1;durP2;ratioP2;P2;SDS_P1;SDS_P2;PMS_P1;PMS_P2;Temp;Humidity;BMP_temperature;BMP_pressure;BME280_temperature;BME280_humidity;BME280_pressure;Samples;Min_cycle;Max_cycle;Signal;HPM_P1;HPM_P2
2023/12/16 00:00:15;;;;;;;8.47;7.77;;;9.20;47.50;;;;;;10451707;28;20703;-78
2023/12/16 00:05:18;;;;;;;8.43;7.73;;;9.20;47.70;;;;;;10445397;28;20237;-78
2023/12/16 00:10:22;;;;;;;8.80;8.00;;;9.20;47.50;;;;;;10450477;28;20263;-78
2023/12/16 00:15:27;;;;;;;8.13;7.43;;;9.20;47.50;;;;;;10452058;28;20236;-78
2023/12/16 00:20:30;;;;;;;9.03;8.27;;;9.20;47.70;;;;;;10452321;28;20233;-78
2023/12/16 00:25:33;;;;;;;8.63;7.83;;;9.20;47.50;;;;;;10449449;28;20356;-78
2023/12/16 00:30:39;;;;;;;7.90;7.23;;;9.20;47.30;;;;;;10451645;28;21178;-78
2023/12/16 00:35:43;;;;;;;9.37;8.47;;;9.20;47.40;;;;;;10451572;28;20232;-78
2023/12/16 00:40:47;;;;;;;8.00;7.30;;;9.10;47.20;;;;;;10450973;28;20225;-78
2023/12/16 00:45:51;;;;;;;8.20;7.57;;;9.10;47.40;;;;;;10448235;28;20233;-78
2023/12/16 00:50:54;;;;;;;8.50;7.70;;;9.00;47.50;;;;;;10448035;28;20236;-78
2023/12/16 00:55:57;;;;;;;8.47;7.70;;;9.00;47.40;;;;;;10446884;28;20614;-78
2023/12/16 01:01:02;;;;;;;8.37;7.67;;;9.00;47.20;;;;;;10450300;28;20243;-78
2023/12/16 01:06:05;;;;;;;8.17;7.47;;;9.00;47.30;;;;;;10436990;28;20336;-78
2023/12/16 01:11:10;;;;;;;9.33;8.43;;;9.00;47.40;;;;;;10449516;28;20229;-78
2023/12/16 01:16:15;;;;;;;8.53;7.83;;;8.90;47.40;;;;;;10444526;28;20240;-78
2023/12/16 01:21:18;;;;;;;8.83;8.03;;;8.90;47.60;;;;;;10447955;28;21243;-78
2023/12/16 01:26:21;;;;;;;9.00;8.10;;;8.90;47.80;;;;;;10444630;28;20241;-78
2023/12/16 01:31:26;;;;;;;9.27;8.47;;;8.90;47.70;;;;;;10444253;28;20603;-78
2023/12/16 01:36:30;;;;;;;8.67;7.87;;;8.90;47.60;;;;;;10447080;28;20290;-78
2023/12/16 01:41:33;;;;;;;8.70;7.97;;;9.00;47.60;;;;;;10445917;28;20236;-78
2023/12/16 01:46:38;;;;;;;8.93;8.23;;;9.00;47.40;;;;;;10440259;28;20225;-78
2023/12/16 01:51:42;;;;;;;8.50;7.80;;;9.00;47.50;;;;;;10448956;28;20266;-78
2023/12/16 01:56:51;;;;;;;8.73;7.93;;;9.00;47.40;;;;;;10445500;28;20232;-78
2023/12/16 02:01:56;;;;;;;8.60;7.90;;;9.00;47.30;;;;;;10447130;28;20646;-78
2023/12/16 02:07:00;;;;;;;9.73;8.10;;;9.00;47.20;;;;;;10448706;28;20237;-78
2023/12/16 02:12:03;;;;;;;9.10;8.37;;;9.00;47.10;;;;;;10447138;28;20308;-78
2023/12/16 02:17:08;;;;;;;9.37;8.53;;;8.90;46.90;;;;;;10447492;28;20337;-78
2023/12/16 02:22:11;;;;;;;8.90;8.00;;;8.90;46.90;;;;;;10444210;28;20395;-78
2023/12/16 02:27:15;;;;;;;9.70;8.80;;;8.90;47.00;;;;;;10447878;28;20291;-78
2023/12/16 02:32:19;;;;;;;8.93;8.13;;;8.80;47.20;;;;;;10447544;28;20268;-78
2023/12/16 02:37:22;;;;;;;9.27;8.47;;;8.70;47.20;;;;;;10439216;28;20263;-78
2023/12/16 02:42:27;;;;;;;9.47;8.67;;;8.70;47.40;;;;;;10447152;28;20698;-78
2023/12/16 02:47:31;;;;;;;8.53;7.80;;;8.70;47.50;;;;;;10446351;28;20259;-78
2023/12/16 02:52:34;;;;;;;9.27;8.40;;;8.70;47.30;;;;;;10442264;28;20308;-78
2023/12/16 02:57:38;;;;;;;8.67;7.87;;;8.60;47.30;;;;;;10446555;28;20228;-78
2023/12/16 03:02:42;;;;;;;9.10;8.30;;;8.60;47.50;;;;;;10442341;28;20953;-78
2023/12/16 03:07:45;;;;;;;8.77;8.00;;;8.60;47.60;;;;;;10438108;28;20283;-78
2023/12/16 03:12:50;;;;;;;8.67;7.87;;;8.60;47.60;;;;;;10438752;28;20229;-78
2023/12/16 03:17:53;;;;;;;8.97;8.17;;;8.60;47.70;;;;;;10443761;28;20311;-77
2023/12/16 03:22:56;;;;;;;8.77;8.07;;;8.60;47.80;;;;;;10439068;28;20568;-78
2023/12/16 03:28:01;;;;;;;9.27;8.40;;;8.60;47.90;;;;;;10435816;28;20239;-78
2023/12/16 03:33:04;;;;;;;8.40;7.70;;;8.60;47.90;;;;;;10439987;28;20232;-78
2023/12/16 03:38:07;;;;;;;9.30;8.50;;;8.60;47.70;;;;;;10444340;28;20233;-78
2023/12/16 03:43:12;;;;;;;8.83;7.93;;;8.60;47.60;;;;;;10439406;28;20303;-78
2023/12/16 03:48:16;;;;;;;8.97;8.17;;;8.50;47.20;;;;;;10443281;28;20260;-77
2023/12/16 03:53:19;;;;;;;9.13;8.23;;;8.50;47.10;;;;;;10444636;28;20233;-78
2023/12/16 03:58:23;;;;;;;9.73;8.83;;;8.30;47.10;;;;;;10444981;28;20236;-78
2023/12/16 04:03:27;;;;;;;9.23;8.43;;;8.20;47.40;;;;;;10431140;28;20231;-78
2023/12/16 04:08:30;;;;;;;9.50;8.60;;;8.10;47.50;;;;;;10428599;28;20232;-77
2023/12/16 04:13:35;;;;;;;9.23;8.43;;;8.10;47.50;;;;;;10444331;28;20224;-78
2023/12/16 04:18:39;;;;;;;9.27;8.40;;;8.00;47.60;;;;;;10444418;28;20282;-78
2023/12/16 04:23:42;;;;;;;9.87;8.97;;;8.00;47.40;;;;;;10444162;28;20236;-77
2023/12/16 04:28:46;;;;;;;9.50;8.60;;;8.00;47.60;;;;;;10439930;28;20233;-78
2023/12/16 04:33:54;;;;;;;9.43;8.43;;;7.90;47.90;;;;;;10441224;28;20744;-78
2023/12/16 04:38:58;;;;;;;8.80;8.00;;;7.80;48.00;;;;;;10443767;28;20249;-78
2023/12/16 04:44:02;;;;;;;10.20;9.20;;;7.70;48.00;;;;;;10446806;28;20236;-78
2023/12/16 04:49:05;;;;;;;8.80;8.00;;;7.70;48.00;;;;;;10444177;28;20707;-77
2023/12/16 04:54:09;;;;;;;7.37;6.70;;;7.80;48.10;;;;;;10439914;28;20229;-78
2023/12/16 04:59:14;;;;;;;8.00;7.30;;;7.80;48.00;;;;;;10450626;28;20876;-77
2023/12/16 05:04:17;;;;;;;7.37;6.70;;;7.80;48.00;;;;;;10449536;28;20255;-77
2023/12/16 05:09:20;;;;;;;8.07;7.37;;;7.90;47.60;;;;;;10448191;28;20233;-77
2023/12/16 05:14:24;;;;;;;8.53;7.73;;;7.90;47.20;;;;;;10444019;28;20315;-77
2023/12/16 05:19:27;;;;;;;8.53;7.83;;;7.90;47.20;;;;;;10450678;28;20229;-77
2023/12/16 05:24:31;;;;;;;7.73;7.03;;;7.90;47.30;;;;;;10449277;28;20235;-77
2023/12/16 05:29:35;;;;;;;9.10;8.30;;;7.90;47.00;;;;;;10448081;28;20229;-77
2023/12/16 05:34:38;;;;;;;8.13;7.43;;;7.90;47.20;;;;;;10449589;28;20757;-77
2023/12/16 05:39:42;;;;;;;7.80;7.10;;;7.90;47.20;;;;;;10444142;28;20233;-77
2023/12/16 05:44:46;;;;;;;7.50;6.80;;;7.90;47.10;;;;;;10449092;28;20228;-77
2023/12/16 05:49:50;;;;;;;7.00;6.40;;;7.90;46.90;;;;;;10449417;28;20239;-77
2023/12/16 05:55:00;;;;;;;8.23;7.50;;;7.90;46.70;;;;;;10446420;28;20756;-77
2023/12/16 06:00:08;;;;;;;7.67;7.07;;;7.90;46.40;;;;;;10447118;28;20225;-77
2023/12/16 06:05:11;;;;;;;7.43;6.73;;;7.90;46.50;;;;;;10448728;28;20244;-77
2023/12/16 06:10:15;;;;;;;8.97;8.10;;;7.90;46.50;;;;;;10448762;28;20229;-77
2023/12/16 06:15:20;;;;;;;8.77;8.07;;;7.90;46.50;;;;;;10442324;28;20283;-77
2023/12/16 06:20:23;;;;;;;10.17;9.17;;;7.80;46.40;;;;;;10448287;28;20225;-77
2023/12/16 06:25:26;;;;;;;10.00;8.90;;;7.80;46.50;;;;;;10447000;28;20284;-77
2023/12/16 06:30:30;;;;;;;9.73;8.77;;;7.60;46.70;;;;;;10439864;28;20224;-77
2023/12/16 06:35:34;;;;;;;8.73;7.93;;;7.60;46.90;;;;;;10444330;28;20228;-77
2023/12/16 06:40:37;;;;;;;8.67;7.87;;;7.50;46.90;;;;;;10446214;28;20710;-77
2023/12/16 06:45:41;;;;;;;8.37;7.60;;;7.40;47.00;;;;;;10440424;28;20279;-77
2023/12/16 06:50:44;;;;;;;10.00;9.00;;;7.30;47.20;;;;;;10435453;28;20867;-77
2023/12/16 06:55:48;;;;;;;9.97;9.07;;;7.30;47.30;;;;;;10446004;28;20714;-77
2023/12/16 07:00:56;;;;;;;10.27;9.37;;;7.30;47.40;;;;;;10441435;28;20314;-77
2023/12/16 07:05:59;;;;;;;9.93;9.13;;;7.20;47.90;;;;;;10442228;28;20312;-77
2023/12/16 07:11:03;;;;;;;9.53;8.63;;;7.30;47.90;;;;;;10443959;28;20224;-77
2023/12/16 07:16:09;;;;;;;9.50;8.60;;;7.30;47.90;;;;;;10436270;28;20264;-77
2023/12/16 07:21:12;;;;;;;10.10;9.20;;;7.30;47.90;;;;;;10440700;28;20229;-78
2023/12/16 07:26:15;;;;;;;9.83;8.97;;;7.30;47.90;;;;;;10442406;28;20239;-77
2023/12/16 07:31:20;;;;;;;13.53;9.00;;;7.30;47.90;;;;;;10437080;28;20224;-79
2023/12/16 07:36:23;;;;;;;13.60;10.70;;;7.30;48.20;;;;;;10432395;28;20240;-79
2023/12/16 07:41:26;;;;;;;17.57;15.77;;;7.40;48.00;;;;;;10432006;28;20229;-79
2023/12/16 07:46:31;;;;;;;20.60;18.60;;;7.40;48.10;;;;;;10433544;28;20232;-79
2023/12/16 07:51:36;;;;;;;17.53;15.77;;;7.50;48.30;;;;;;10430787;28;20275;-79
2023/12/16 07:56:39;;;;;;;11.63;10.60;;;7.50;48.10;;;;;;10430747;28;20243;-79
2023/12/16 08:01:48;;;;;;;13.63;12.33;;;7.50;48.10;;;;;;10431009;28;20237;-78
2023/12/16 08:06:51;;;;;;;11.87;10.73;;;7.50;48.30;;;;;;10419950;28;20248;-79
2023/12/16 08:11:58;;;;;;;12.43;11.27;;;7.60;48.30;;;;;;10428416;28;20229;-78
2023/12/16 08:17:02;;;;;;;13.67;12.37;;;7.60;48.20;;;;;;10435827;28;20239;-79
2023/12/16 08:22:06;;;;;;;12.10;10.90;;;7.60;48.30;;;;;;10439466;28;20683;-79
2023/12/16 08:27:09;;;;;;;13.77;12.37;;;7.60;48.20;;;;;;10438082;28;20233;-79
2023/12/16 08:32:14;;;;;;;11.63;10.53;;;7.60;48.10;;;;;;10444016;28;20221;-79
2023/12/16 08:37:17;;;;;;;13.80;12.40;;;7.60;48.50;;;;;;10432798;28;20239;-78
2023/12/16 08:42:20;;;;;;;13.20;12.00;;;7.70;48.50;;;;;;10433337;28;20275;-78
2023/12/16 08:47:25;;;;;;;12.63;11.43;;;7.70;48.60;;;;;;10434231;28;20613;-79
2023/12/16 08:52:28;;;;;;;11.20;10.20;;;7.80;48.80;;;;;;10427415;28;20832;-78
2023/12/16 08:57:32;;;;;;;12.10;10.90;;;7.80;48.70;;;;;;10439326;28;20247;-78
2023/12/16 09:02:38;;;;;;;12.77;11.57;;;8.00;48.80;;;;;;10426318;28;20799;-79
2023/12/16 09:07:41;;;;;;;13.43;12.13;;;8.00;48.90;;;;;;10441147;28;20235;-79
2023/12/16 09:12:44;;;;;;;13.90;12.50;;;8.10;48.60;;;;;;10433651;28;20781;-79
2023/12/16 09:17:49;;;;;;;12.87;11.60;;;8.20;48.70;;;;;;10433416;28;20244;-79
2023/12/16 09:22:52;;;;;;;13.70;12.40;;;8.20;48.70;;;;;;10440036;28;20272;-78
2023/12/16 09:27:55;;;;;;;13.10;11.80;;;8.20;48.90;;;;;;10439870;28;20225;-75
2023/12/16 09:33:00;;;;;;;16.27;14.70;;;8.30;49.00;;;;;;10441108;28;20325;-78
2023/12/16 09:38:03;;;;;;;12.47;11.33;;;8.40;49.00;;;;;;10440383;28;20233;-77
2023/12/16 09:43:16;;;;;;;13.90;12.43;;;8.40;49.70;;;;;;10430850;28;20766;-76
2023/12/16 09:48:21;;;;;;;14.97;13.63;;;8.60;52.20;;;;;;10435296;28;20229;-77
2023/12/16 09:53:25;;;;;;;12.93;11.63;;;8.80;50.90;;;;;;10436699;28;20803;-76
2023/12/16 09:58:30;;;;;;;13.53;12.17;;;9.00;49.50;;;;;;10434748;28;20636;-77
2023/12/16 10:03:35;;;;;;;14.20;12.80;;;9.00;49.30;;;;;;10440439;28;20240;-78
2023/12/16 10:08:40;;;;;;;14.53;13.13;;;8.90;49.30;;;;;;10426744;28;21102;-78
2023/12/16 10:13:56;;;;;;;14.83;13.43;;;8.90;49.20;;;;;;10437881;28;20239;-79
2023/12/16 10:19:03;;;;;;;11.80;10.70;;;9.00;49.80;;;;;;10429218;28;20730;-79
2023/12/16 10:24:06;;;;;;;13.00;11.70;;;9.00;49.50;;;;;;10436408;28;20244;-77
2023/12/16 10:29:11;;;;;;;12.90;11.67;;;9.10;49.60;;;;;;10433549;28;21012;-76
2023/12/16 10:34:17;;;;;;;13.70;11.87;;;9.20;49.90;;;;;;10428637;28;22209;-76
2023/12/16 10:39:20;;;;;;;13.63;12.33;;;9.30;50.10;;;;;;10429437;28;20224;-76
2023/12/16 10:44:23;;;;;;;13.10;11.80;;;9.50;50.00;;;;;;10443331;28;20239;-75
2023/12/16 10:49:38;;;;;;;13.37;12.07;;;9.60;49.50;;;;;;10431769;28;20315;-78
2023/12/16 10:54:43;;;;;;;11.27;10.23;;;9.60;49.50;;;;;;10436200;28;20240;-78
2023/12/16 10:59:55;;;;;;;12.77;11.57;;;9.70;49.20;;;;;;10438274;28;20802;-75
2023/12/16 11:05:07;;;;;;;11.53;10.43;;;9.70;48.90;;;;;;10405306;28;20245;-77
2023/12/16 11:10:10;;;;;;;11.07;10.07;;;9.80;48.70;;;;;;10434541;28;20307;-78
2023/12/16 11:15:14;;;;;;;12.60;11.30;;;9.80;48.60;;;;;;10447938;28;20766;-78
2023/12/16 11:20:22;;;;;;;10.80;9.73;;;9.80;48.40;;;;;;10445835;28;20248;-77
2023/12/16 11:25:26;;;;;;;11.20;10.10;;;9.90;48.40;;;;;;10445166;28;20310;-77
2023/12/16 11:30:30;;;;;;;11.40;10.40;;;9.90;48.50;;;;;;10444625;28;20240;-77
2023/12/16 11:35:48;;;;;;;10.63;9.63;;;9.80;48.20;;;;;;10443696;28;20228;-77
2023/12/16 11:40:52;;;;;;;11.53;10.43;;;9.90;48.10;;;;;;10443831;28;20325;-77
2023/12/16 11:45:55;;;;;;;11.53;10.43;;;9.90;48.30;;;;;;10443957;28;20237;-77
2023/12/16 11:51:01;;;;;;;11.10;10.10;;;9.90;48.40;;;;;;10442944;28;20264;-77
2023/12/16 11:56:06;;;;;;;11.40;10.40;;;10.00;47.40;;;;;;10443307;28;20233;-77
2023/12/16 12:01:09;;;;;;;12.17;11.07;;;10.00;47.20;;;;;;10444215;28;20796;-77
2023/12/16 12:06:14;;;;;;;12.80;11.60;;;10.10;47.70;;;;;;10443068;28;20714;-77
2023/12/16 12:11:20;;;;;;;12.00;10.90;;;10.10;47.60;;;;;;10443545;28;20821;-77
2023/12/16 12:16:23;;;;;;;10.93;10.03;;;10.20;47.50;;;;;;10443208;28;20244;-77
2023/12/16 12:21:28;;;;;;;11.60;10.50;;;10.20;47.30;;;;;;10443226;28;20327;-77
2023/12/16 12:26:31;;;;;;;11.20;10.20;;;10.20;47.10;;;;;;10441846;28;20237;-76
2023/12/16 12:31:43;;;;;;;10.23;9.23;;;10.30;47.50;;;;;;10435826;28;20694;-77
2023/12/16 12:36:48;;;;;;;9.97;9.00;;;10.30;47.20;;;;;;10438689;28;20278;-77
2023/12/16 12:42:01;;;;;;;9.20;8.40;;;10.40;46.90;;;;;;10436584;28;20708;-77
2023/12/16 12:47:05;;;;;;;10.40;9.43;;;10.50;46.20;;;;;;10440341;28;20619;-77
2023/12/16 12:52:09;;;;;;;10.07;9.07;;;10.50;46.50;;;;;;10440460;28;20233;-77
2023/12/16 12:57:19;;;;;;;9.67;8.77;;;10.50;46.30;;;;;;10440823;28;20312;-77
2023/12/16 13:02:22;;;;;;;9.77;8.90;;;10.50;46.30;;;;;;10444292;28;20266;-77
2023/12/16 13:07:27;;;;;;;10.20;9.20;;;10.50;47.00;;;;;;10448129;28;20240;-76
2023/12/16 13:12:31;;;;;;;9.80;8.90;;;10.60;46.30;;;;;;10450450;28;20691;-79
2023/12/16 13:17:41;;;;;;;10.27;9.37;;;10.60;46.40;;;;;;10453630;28;20312;-78
2023/12/16 13:22:49;;;;;;;9.00;8.27;;;10.70;45.20;;;;;;10455090;28;20658;-78
2023/12/16 13:27:52;;;;;;;8.77;7.97;;;10.70;45.20;;;;;;10450388;28;20243;-76
2023/12/16 13:32:55;;;;;;;9.20;8.43;;;10.70;45.50;;;;;;10450061;28;20231;-77
2023/12/16 13:38:01;;;;;;;9.10;8.30;;;10.70;45.00;;;;;;10451935;28;20243;-77
2023/12/16 13:43:04;;;;;;;9.43;8.47;;;10.60;44.90;;;;;;10450665;28;20225;-75
2023/12/16 13:48:08;;;;;;;9.13;8.27;;;10.60;45.40;;;;;;10447982;28;20233;-75
2023/12/16 13:53:12;;;;;;;8.47;7.77;;;10.60;45.40;;;;;;10447967;28;20232;-75
2023/12/16 13:58:17;;;;;;;8.20;7.50;;;10.60;45.40;;;;;;10453322;28;20328;-76
2023/12/16 14:03:21;;;;;;;8.47;7.77;;;10.60;45.30;;;;;;10450191;28;20243;-77
2023/12/16 14:08:26;;;;;;;7.97;7.33;;;10.60;45.30;;;;;;10434079;28;20234;-76
2023/12/16 14:13:29;;;;;;;8.73;7.97;;;10.60;45.50;;;;;;10448539;28;20324;-75
2023/12/16 14:18:32;;;;;;;8.90;8.10;;;10.70;45.50;;;;;;10449039;28;20764;-75
2023/12/16 14:23:37;;;;;;;9.50;8.60;;;10.70;45.30;;;;;;10444937;28;20236;-77
2023/12/16 14:28:40;;;;;;;8.43;7.63;;;10.80;45.30;;;;;;10438292;28;20275;-75
2023/12/16 14:33:43;;;;;;;9.63;8.03;;;10.80;45.40;;;;;;10438989;28;20231;-76
2023/12/16 14:38:48;;;;;;;8.00;7.20;;;10.80;45.30;;;;;;10431754;28;20761;-76
2023/12/16 14:43:51;;;;;;;11.43;10.23;;;10.80;45.00;;;;;;10437980;28;20286;-78
2023/12/16 14:48:54;;;;;;;10.90;10.00;;;10.80;45.20;;;;;;10436407;28;20236;-78
2023/12/16 14:53:59;;;;;;;9.97;9.03;;;10.80;45.10;;;;;;10429528;28;20316;-78
2023/12/16 14:59:02;;;;;;;11.17;10.13;;;10.80;44.60;;;;;;10433325;28;20286;-78
2023/12/16 15:04:05;;;;;;;9.20;8.40;;;10.80;44.80;;;;;;10435599;28;20233;-78
2023/12/16 15:09:10;;;;;;;13.23;11.93;;;10.80;44.60;;;;;;10434327;28;20232;-78
2023/12/16 15:14:15;;;;;;;14.73;13.10;;;10.70;44.40;;;;;;10438327;28;20228;-78
2023/12/16 15:19:18;;;;;;;13.93;12.53;;;10.70;44.70;;;;;;10430810;28;20324;-78
2023/12/16 15:24:24;;;;;;;13.13;11.57;;;10.60;44.70;;;;;;10427736;28;20245;-79
2023/12/16 15:29:27;;;;;;;11.20;10.20;;;10.60;44.50;;;;;;10432369;28;20264;-78
2023/12/16 15:34:30;;;;;;;9.37;8.47;;;10.60;44.50;;;;;;10434144;28;20665;-79
2023/12/16 15:39:38;;;;;;;10.13;9.23;;;10.60;44.40;;;;;;10430308;28;20228;-79
2023/12/16 15:44:41;;;;;;;10.10;9.27;;;10.50;43.90;;;;;;10431904;28;20807;-79
2023/12/16 15:49:45;;;;;;;11.07;10.03;;;10.50;44.20;;;;;;10430517;28;20318;-78
2023/12/16 15:54:50;;;;;;;12.13;10.93;;;10.40;44.10;;;;;;10433043;28;20233;-78
2023/12/16 15:59:53;;;;;;;13.10;11.87;;;10.40;43.90;;;;;;10435126;28;20728;-78
2023/12/16 16:04:56;;;;;;;12.23;11.13;;;10.30;43.80;;;;;;10433555;28;20241;-77
2023/12/16 16:10:01;;;;;;;9.63;8.83;;;10.20;43.70;;;;;;10434145;28;20256;-78
2023/12/16 16:15:05;;;;;;;16.73;15.13;;;10.20;43.60;;;;;;10433106;28;20232;-80
2023/12/16 16:20:20;;;;;;;12.83;11.63;;;10.10;43.50;;;;;;10432584;28;20749;-78
2023/12/16 16:25:25;;;;;;;11.17;10.17;;;10.00;43.40;;;;;;10430235;28;20242;-77
2023/12/16 16:30:28;;;;;;;11.57;10.57;;;9.90;44.20;;;;;;10385947;28;20353;-78
2023/12/16 16:35:31;;;;;;;13.70;12.43;;;9.80;44.30;;;;;;10382620;28;20311;-78
2023/12/16 16:40:36;;;;;;;12.70;11.37;;;9.70;44.30;;;;;;10391873;28;20299;-77
2023/12/16 16:45:40;;;;;;;16.47;14.83;;;9.60;44.20;;;;;;10390894;28;20330;-77
2023/12/16 16:50:47;;;;;;;16.53;14.83;;;9.60;44.30;;;;;;10398120;28;20284;-79
2023/12/16 16:55:53;;;;;;;14.57;13.13;;;9.50;44.00;;;;;;10397298;28;20234;-78
2023/12/16 17:00:56;;;;;;;14.53;13.13;;;9.30;44.00;;;;;;10395558;28;20224;-78
2023/12/16 17:05:59;;;;;;;11.47;10.30;;;9.20;44.30;;;;;;10397275;28;20237;-77
2023/12/16 17:11:04;;;;;;;12.67;11.37;;;9.00;44.10;;;;;;10387358;28;20226;-80
2023/12/16 17:16:08;;;;;;;11.90;10.70;;;8.80;44.40;;;;;;10387049;28;20250;-78
2023/12/16 17:21:12;;;;;;;13.00;11.80;;;8.80;44.40;;;;;;10394785;28;20590;-78
2023/12/16 17:26:16;;;;;;;13.17;11.90;;;8.70;44.40;;;;;;10400873;28;20236;-78
2023/12/16 17:31:19;;;;;;;12.50;11.33;;;8.60;44.20;;;;;;10434097;28;20239;-78
2023/12/16 17:36:22;;;;;;;12.70;11.50;;;8.60;44.30;;;;;;10428576;28;20240;-80
2023/12/16 17:41:27;;;;;;;12.87;11.67;;;8.50;44.10;;;;;;10447235;28;20248;-78
2023/12/16 17:46:30;;;;;;;13.13;11.90;;;8.50;44.10;;;;;;10431036;28;20351;-78
2023/12/16 17:51:33;;;;;;;16.07;14.47;;;8.50;44.40;;;;;;10438112;28;20239;-78
2023/12/16 17:56:38;;;;;;;20.33;18.00;;;8.40;43.90;;;;;;10437210;28;20236;-78
2023/12/16 18:01:45;;;;;;;25.47;22.90;;;8.30;43.80;;;;;;10433798;28;20248;-79
2023/12/16 18:06:51;;;;;;;19.73;17.70;;;8.20;44.20;;;;;;10432509;28;20710;-75
2023/12/16 18:11:56;;;;;;;18.30;16.50;;;8.10;44.20;;;;;;10435357;28;20598;-74
2023/12/16 18:17:01;;;;;;;14.07;12.77;;;8.10;44.40;;;;;;10436688;28;20322;-75
2023/12/16 18:22:04;;;;;;;12.50;11.30;;;8.00;44.50;;;;;;10442008;28;20233;-77
2023/12/16 18:27:08;;;;;;;14.13;11.90;;;8.10;44.70;;;;;;10431985;28;20252;-78
2023/12/16 18:32:12;;;;;;;18.23;16.43;;;8.00;44.10;;;;;;10427955;28;20608;-77
2023/12/16 18:37:15;;;;;;;15.90;14.40;;;8.00;43.90;;;;;;10427212;28;20659;-77
2023/12/16 18:42:20;;;;;;;16.93;15.17;;;7.80;43.80;;;;;;10433405;28;20221;-78
2023/12/16 18:47:24;;;;;;;19.30;17.17;;;7.60;43.70;;;;;;10425350;28;20228;-77
2023/12/16 18:52:28;;;;;;;16.97;14.77;;;7.50;44.20;;;;;;10424569;28;20240;-77
2023/12/16 18:57:32;;;;;;;17.10;15.40;;;7.40;44.40;;;;;;10427139;28;20270;-77
2023/12/16 19:02:36;;;;;;;24.67;21.87;;;7.30;44.10;;;;;;10425337;28;20232;-77
2023/12/16 19:07:39;;;;;;;20.77;18.63;;;7.30;44.30;;;;;;10431919;28;20744;-77
2023/12/16 19:12:45;;;;;;;18.40;16.60;;;7.30;44.30;;;;;;10430751;28;20221;-78
2023/12/16 19:17:55;;;;;;;16.67;14.50;;;7.20;44.30;;;;;;10427660;28;20934;-77
2023/12/16 19:22:58;;;;;;;14.07;12.57;;;7.20;44.00;;;;;;10447919;28;20233;-77
2023/12/16 19:28:11;;;;;;;14.20;12.80;;;7.20;44.20;;;;;;10441888;28;20306;-77
2023/12/16 19:33:15;;;;;;;14.57;13.07;;;7.20;44.00;;;;;;10434446;28;20235;-77
2023/12/16 19:38:18;;;;;;;13.37;12.17;;;7.10;44.20;;;;;;10431120;28;20237;-77
2023/12/16 19:43:24;;;;;;;14.33;12.97;;;7.20;44.40;;;;;;10429765;28;20667;-77
2023/12/16 19:48:28;;;;;;;13.67;12.27;;;7.10;44.40;;;;;;10432287;28;20258;-77
2023/12/16 19:53:31;;;;;;;15.40;13.83;;;7.10;44.40;;;;;;10431473;28;20739;-76
2023/12/16 19:58:36;;;;;;;13.77;12.47;;;7.10;44.40;;;;;;10438473;28;20711;-77
2023/12/16 20:03:39;;;;;;;17.57;15.83;;;7.10;43.90;;;;;;10433568;28;20217;-77
2023/12/16 20:08:42;;;;;;;14.63;13.23;;;7.10;44.20;;;;;;10430202;28;20303;-76
2023/12/16 20:13:50;;;;;;;16.53;14.97;;;7.00;44.30;;;;;;10435404;28;20230;-75
2023/12/16 20:18:54;;;;;;;14.10;12.70;;;7.00;44.30;;;;;;10433773;28;20742;-75
2023/12/16 20:23:57;;;;;;;13.90;12.60;;;7.00;44.40;;;;;;10440988;28;20321;-75
2023/12/16 20:29:01;;;;;;;13.67;12.37;;;7.00;44.10;;;;;;10434560;28;20320;-75
2023/12/16 20:34:05;;;;;;;12.80;11.60;;;6.90;43.90;;;;;;10428520;28;20786;-75
2023/12/16 20:44:31;;;;;;;17.40;15.70;;;6.80;44.10;;;;;;10429880;28;20230;-74
2023/12/16 20:49:34;;;;;;;17.10;15.03;;;6.80;44.10;;;;;;10432483;28;20235;-75
2023/12/16 20:54:37;;;;;;;15.07;13.60;;;6.80;44.10;;;;;;10438671;28;20622;-74
2023/12/16 20:59:42;;;;;;;14.43;12.93;;;6.80;43.90;;;;;;10427105;28;20901;-74
2023/12/16 21:04:45;;;;;;;16.83;15.10;;;6.70;43.60;;;;;;10429436;28;20236;-74
2023/12/16 21:09:48;;;;;;;13.60;12.30;;;6.60;43.70;;;;;;10431754;28;20229;-76
2023/12/16 21:14:52;;;;;;;18.00;16.27;;;6.50;43.90;;;;;;10433080;28;20655;-76
2023/12/16 21:19:56;;;;;;;15.33;13.73;;;6.40;43.90;;;;;;10437722;28;20253;-76
2023/12/16 21:24:59;;;;;;;17.43;15.47;;;6.30;43.80;;;;;;10441196;28;20252;-76
2023/12/16 21:30:07;;;;;;;16.17;14.47;;;6.30;43.80;;;;;;10450783;28;20695;-76
2023/12/16 21:35:10;;;;;;;15.77;14.23;;;6.20;43.70;;;;;;10451700;28;20264;-76
2023/12/16 21:40:13;;;;;;;13.93;12.63;;;6.20;44.10;;;;;;10452198;28;20237;-76
2023/12/16 21:45:18;;;;;;;14.17;12.87;;;6.20;44.10;;;;;;10451781;28;20724;-76
2023/12/16 21:50:21;;;;;;;14.33;12.93;;;6.20;43.80;;;;;;10452614;28;20236;-76
2023/12/16 21:55:24;;;;;;;19.57;17.47;;;6.20;43.70;;;;;;10445184;28;20240;-76
2023/12/16 22:00:29;;;;;;;21.60;19.27;;;6.10;43.60;;;;;;10452491;28;20274;-74
2023/12/16 22:05:32;;;;;;;31.73;28.37;;;5.90;43.70;;;;;;10450397;28;20315;-74
2023/12/16 22:10:35;;;;;;;19.40;17.40;;;5.70;44.00;;;;;;10450218;28;20229;-74
2023/12/16 22:15:40;;;;;;;17.57;15.83;;;5.50;44.40;;;;;;10449482;28;20237;-74
2023/12/16 22:20:43;;;;;;;16.20;14.60;;;5.40;44.60;;;;;;10449777;28;20315;-74
2023/12/16 22:25:46;;;;;;;14.60;13.20;;;5.40;44.70;;;;;;10449614;28;20315;-74
2023/12/16 22:30:51;;;;;;;18.13;16.33;;;5.40;44.70;;;;;;10449126;28;20240;-74
2023/12/16 22:35:55;;;;;;;16.23;14.57;;;5.50;44.60;;;;;;10448541;28;20237;-74
2023/12/16 22:40:58;;;;;;;15.03;13.53;;;5.40;44.60;;;;;;10441088;28;20248;-75
2023/12/16 22:46:03;;;;;;;15.33;13.73;;;5.40;44.70;;;;;;10448940;28;20236;-74
2023/12/16 22:51:06;;;;;;;14.73;13.23;;;5.40;44.70;;;;;;10448633;28;20247;-75
2023/12/16 22:56:15;;;;;;;15.03;13.43;;;5.30;44.70;;;;;;10448049;28;20228;-75
2023/12/16 23:01:20;;;;;;;14.67;13.17;;;5.30;44.70;;;;;;10448777;28;20726;-75
2023/12/16 23:06:23;;;;;;;15.30;13.70;;;5.30;44.90;;;;;;10448713;28;20241;-75
2023/12/16 23:11:26;;;;;;;14.80;13.40;;;5.30;44.80;;;;;;10448585;28;20761;-75
2023/12/16 23:16:31;;;;;;;13.40;12.03;;;5.30;45.00;;;;;;10448320;28;20236;-75
2023/12/16 23:21:34;;;;;;;14.23;12.73;;;5.30;45.00;;;;;;10447815;28;20252;-75
2023/12/16 23:26:37;;;;;;;14.07;12.57;;;5.30;44.70;;;;;;10447896;28;20315;-75
2023/12/16 23:31:42;;;;;;;12.67;11.40;;;5.20;44.90;;;;;;10447152;28;20307;-75
2023/12/16 23:36:45;;;;;;;13.83;12.43;;;5.20;45.00;;;;;;10447830;28;20232;-75
2023/12/16 23:41:49;;;;;;;13.97;12.57;;;5.30;45.00;;;;;;10447919;28;20225;-75
2023/12/16 23:46:54;;;;;;;13.67;12.27;;;5.30;44.70;;;;;;10447487;28;20236;-75
2023/12/16 23:51:57;;;;;;;13.23;11.93;;;5.20;44.60;;;;;;10446557;28;20320;-75
2023/12/16 23:57:01;;;;;;;13.50;12.10;;;5.20;44.80;;;;;;10447371;28;20229;-75
